Time;durP1;ratioP1;P1;durP2;ratioP2;P2;SDS_P1;SDS_P2;PMS_P1;PMS_P2;Temp;Humidity;BMP_temperature;BMP_pressure;BME280_temperature;BME280_humidity;BME280_pressure;Samples;Min_cycle;Max_cycle;Signal;HPM_P1;HPM_P2
2023/01/05 00:01:36;;;;;;;43.85;22.73;;;;;;;-0.32;67.80;101467.80;1763580;81;25782;-60
2023/01/05 00:04:04;;;;;;;36.80;20.12;;;;;;;-0.36;67.69;101470.16;1763931;81;25756;-60
2023/01/05 00:06:32;;;;;;;32.53;17.65;;;;;;;-0.39;67.67;101477.70;1764222;81;26499;-60
2023/01/05 00:09:00;;;;;;;32.30;16.52;;;;;;;-0.42;67.99;101467.69;1763746;81;25536;-60
2023/01/05 00:22:51;;;;;;;34.60;20.00;;;;;;;-0.59;68.10;101444.45;1705548;83;27384;-59
2023/01/05 00:25:22;;;;;;;41.23;21.55;;;;;;;-0.58;68.35;101440.89;1711890;83;27556;-60
2023/01/05 00:27:52;;;;;;;36.45;20.43;;;;;;;-0.56;68.39;101437.72;1723138;81;25712;-60
2023/01/05 00:30:23;;;;;;;38.63;16.50;;;;;;;-0.53;68.43;101435.84;1746167;82;25703;-60
2023/01/05 00:32:51;;;;;;;37.80;18.00;;;;;;;-0.54;69.35;101431.94;1747280;82;25789;-60
2023/01/05 00:35:18;;;;;;;34.75;17.30;;;;;;;-0.61;68.84;101429.94;1740774;81;25777;-60
2023/01/05 00:37:46;;;;;;;39.00;16.65;;;;;;;-0.64;68.71;101425.62;1726004;82;27508;-59
2023/01/05 00:40:19;;;;;;;31.70;16.25;;;;;;;-0.64;68.71;101430.05;1707686;84;25777;-60
2023/01/05 00:42:46;;;;;;;29.73;16.83;;;;;;;-0.67;68.59;101427.02;1707893;84;25749;-60
2023/01/05 00:45:16;;;;;;;28.92;16.77;;;;;;;-0.68;68.76;101408.14;1708010;84;25936;-60
2023/01/05 00:47:43;;;;;;;31.17;17.05;;;;;;;-0.66;68.81;101412.91;1711409;80;26414;-61
2023/01/05 00:50:15;;;;;;;30.65;16.85;;;;;;;-0.63;68.89;101411.97;1722452;80;27468;-60
2023/01/05 00:52:43;;;;;;;31.05;17.40;;;;;;;-0.64;68.88;101403.16;1705658;83;25854;-60
2023/01/05 00:55:10;;;;;;;28.95;16.20;;;;;;;-0.64;68.93;101415.05;1705482;84;25775;-59
2023/01/05 00:57:37;;;;;;;30.15;16.73;;;;;;;-0.67;69.09;101407.20;1727653;81;25889;-59
2023/01/05 01:00:10;;;;;;;36.38;17.00;;;;;;;-0.70;68.89;101396.75;1742132;81;25812;-59
2023/01/05 01:02:37;;;;;;;26.42;15.28;;;;;;;-0.71;68.96;101380.48;1719971;81;27484;-59
2023/01/05 01:05:07;;;;;;;32.53;16.42;;;;;;;-0.73;68.88;101377.49;1714613;83;25823;-60
2023/01/05 01:07:33;;;;;;;27.22;15.63;;;;;;;-0.78;69.17;101374.99;1714425;83;25791;-60
2023/01/05 01:10:00;;;;;;;24.95;15.00;;;;;;;-0.79;69.30;101374.58;1709090;83;26441;-60
2023/01/05 01:12:27;;;;;;;27.42;15.10;;;;;;;-0.79;69.32;101377.22;1704048;83;25962;-60
2023/01/05 01:14:54;;;;;;;26.75;14.75;;;;;;;-0.81;69.38;101375.93;1778862;80;27309;-59
2023/01/05 01:17:20;;;;;;;27.82;15.60;;;;;;;-0.79;69.41;101377.22;1779131;80;25698;-59
2023/01/05 01:19:47;;;;;;;25.90;14.75;;;;;;;-0.78;69.71;101364.42;1770995;80;25760;-60
2023/01/05 01:22:14;;;;;;;26.85;15.83;;;;;;;-0.75;69.79;101360.81;1764082;81;25832;-59
2023/01/05 01:24:41;;;;;;;30.65;16.25;;;;;;;-0.77;69.90;101354.27;1764009;81;25708;-59
2023/01/05 01:27:08;;;;;;;27.75;15.68;;;;;;;-0.80;69.67;101343.31;1756391;80;27483;-59
2023/01/05 01:29:35;;;;;;;26.20;16.32;;;;;;;-0.77;69.82;101330.49;1720531;83;25731;-59
2023/01/05 01:32:02;;;;;;;28.65;17.32;;;;;;;-0.76;69.78;101326.91;1750544;81;25721;-60
2023/01/05 01:34:30;;;;;;;32.80;16.48;;;;;;;-0.73;69.91;101314.93;1717345;83;25864;-59
2023/01/05 01:36:59;;;;;;;29.18;16.57;;;;;;;-0.69;70.03;101307.33;1776639;80;25709;-60
2023/01/05 01:39:28;;;;;;;31.65;16.50;;;;;;;-0.66;69.96;101304.56;1769540;80;27482;-60
2023/01/05 01:41:56;;;;;;;33.33;16.12;;;;;;;-0.61;69.96;101300.91;1772140;80;25817;-60
2023/01/05 01:44:54;;;;;;;27.32;16.00;;;;;;;-0.60;69.94;101293.39;1772310;80;25792;-59
2023/01/05 01:47:32;;;;;;;31.00;14.65;;;;;;;-0.59;69.99;101276.63;1772162;80;25825;-60
2023/01/05 01:50:07;;;;;;;26.00;15.15;;;;;;;-0.58;70.06;101271.75;1772318;80;25698;-60
2023/01/05 01:52:35;;;;;;;34.23;16.85;;;;;;;-0.56;70.01;101264.61;1747911;80;27731;-60
2023/01/05 01:55:05;;;;;;;27.90;15.30;;;;;;;-0.54;69.75;101268.92;1751872;81;25831;-60
2023/01/05 01:57:34;;;;;;;26.82;15.10;;;;;;;-0.53;69.73;101268.48;1752053;81;25817;-60
2023/01/05 02:00:05;;;;;;;27.90;17.42;;;;;;;-0.52;69.64;101267.09;1752207;81;25984;-60
2023/01/05 02:02:33;;;;;;;25.55;15.40;;;;;;;-0.53;69.59;101261.88;1745725;81;26008;-60
2023/01/05 02:05:05;;;;;;;29.25;17.50;;;;;;;-0.56;69.62;101261.97;1752144;81;27466;-60
2023/01/05 02:07:37;;;;;;;29.25;15.65;;;;;;;-0.57;69.90;101258.48;1752318;81;25805;-60
2023/01/05 02:10:06;;;;;;;31.20;16.50;;;;;;;-0.52;69.99;101245.95;1744704;80;25844;-60
2023/01/05 02:12:50;;;;;;;32.53;17.52;;;;;;;-0.47;70.05;101248.44;1739925;82;25743;-60
2023/01/05 02:15:25;;;;;;;32.67;17.67;;;;;;;-0.42;70.12;101241.23;1739254;82;25823;-61
2023/01/05 02:18:21;;;;;;;29.27;15.90;;;;;;;-0.40;70.18;101234.08;1739365;82;28559;-60
2023/01/05 02:21:11;;;;;;;25.92;15.15;;;;;;;-0.34;70.26;101231.68;1739510;82;26014;-60
2023/01/05 02:24:18;;;;;;;30.85;14.90;;;;;;;-0.33;70.19;101219.75;1742059;82;25777;-60
2023/01/05 02:27:28;;;;;;;30.48;14.83;;;;;;;-0.30;70.38;101221.42;1741940;82;25861;-60
2023/01/05 02:30:33;;;;;;;26.73;14.18;;;;;;;-0.30;70.26;101200.70;1734983;82;25987;-60
2023/01/05 02:33:26;;;;;;;25.80;15.50;;;;;;;-0.30;70.14;101191.02;1737136;81;27462;-60
2023/01/05 02:36:23;;;;;;;31.27;14.93;;;;;;;-0.29;70.26;101195.83;1770328;80;26152;-60
2023/01/05 02:38:59;;;;;;;30.27;16.35;;;;;;;-0.28;70.41;101187.86;1765605;80;25719;-60
2023/01/05 02:41:38;;;;;;;27.58;15.20;;;;;;;-0.23;70.69;101180.61;1719263;81;25851;-60
2023/01/05 02:44:08;;;;;;;28.40;16.07;;;;;;;-0.16;70.82;101168.87;1737342;82;25752;-60
2023/01/05 02:46:35;;;;;;;27.80;16.45;;;;;;;-0.11;70.95;101156.80;1739901;82;27422;-61
2023/01/05 02:49:04;;;;;;;28.25;17.48;;;;;;;-0.07;70.72;101152.26;1739680;82;25717;-60
2023/01/05 02:51:35;;;;;;;29.55;16.50;;;;;;;-0.02;70.84;101151.64;1739963;82;25744;-60
2023/01/05 02:54:10;;;;;;;28.70;14.93;;;;;;;0.04;70.76;101149.22;1739609;82;25832;-61
2023/01/05 02:56:55;;;;;;;32.23;15.23;;;;;;;0.09;70.85;101146.77;1739288;82;26082;-60
2023/01/05 02:59:37;;;;;;;29.15;16.25;;;;;;;0.13;70.81;101143.58;1740173;80;27866;-59
2023/01/05 03:02:08;;;;;;;31.50;17.65;;;;;;;0.19;70.98;101131.86;1741504;82;25814;-60
2023/01/05 03:04:41;;;;;;;27.98;16.00;;;;;;;0.23;70.95;101121.09;1741154;82;25700;-60
2023/01/05 03:07:12;;;;;;;29.95;17.82;;;;;;;0.27;70.99;101128.48;1741049;82;25814;-60
2023/01/05 03:09:42;;;;;;;30.48;15.18;;;;;;;0.31;71.05;101123.45;1741336;82;25768;-60
2023/01/05 03:15:32;;;;;;;28.67;17.02;;;;;;;0.32;71.01;101113.27;1741152;82;25794;-60
2023/01/05 03:18:06;;;;;;;35.60;16.67;;;;;;;0.37;71.05;101108.64;1741017;82;25752;-60
2023/01/05 03:20:37;;;;;;;24.85;15.05;;;;;;;0.35;70.82;101108.30;1741151;82;25687;-60
2023/01/05 03:38:11;;;;;;;27.82;17.65;;;;;;;0.41;71.64;101106.28;1700579;82;25756;-59
2023/01/05 03:40:40;;;;;;;26.68;17.15;;;;;;;0.40;72.03;101107.20;1754293;80;27458;-59
2023/01/05 03:43:08;;;;;;;29.23;16.30;;;;;;;0.44;71.88;101109.25;1764734;81;25754;-60
2023/01/05 03:45:45;;;;;;;27.13;17.42;;;;;;;0.49;71.99;101109.06;1764821;80;25826;-59
2023/01/05 03:48:13;;;;;;;26.70;17.00;;;;;;;0.53;72.09;101102.26;1766632;80;26259;-59
2023/01/05 03:50:40;;;;;;;24.80;15.83;;;;;;;0.54;71.79;101090.75;1768161;80;25702;-59
2023/01/05 03:53:09;;;;;;;25.35;16.65;;;;;;;0.57;71.89;101080.48;1768995;80;27720;-59
2023/01/05 03:55:36;;;;;;;32.28;18.20;;;;;;;0.64;72.10;101078.45;1768868;80;27192;-59
2023/01/05 03:58:04;;;;;;;29.65;17.02;;;;;;;0.68;72.12;101083.55;1769836;80;25818;-59
2023/01/05 04:00:32;;;;;;;27.15;17.27;;;;;;;0.73;72.40;101069.64;1767711;80;25778;-60
2023/01/05 04:03:01;;;;;;;26.30;16.52;;;;;;;0.81;72.47;101073.77;1781303;80;25848;-59
2023/01/05 04:05:28;;;;;;;29.80;17.15;;;;;;;0.86;72.45;101071.30;1781058;80;27564;-59
2023/01/05 04:07:55;;;;;;;28.62;16.93;;;;;;;0.95;72.55;101067.41;1781053;80;25889;-59
2023/01/05 04:10:22;;;;;;;29.32;18.02;;;;;;;1.00;72.68;101050.83;1781268;80;26464;-59
2023/01/05 04:12:49;;;;;;;30.70;17.75;;;;;;;1.07;72.93;101044.80;1781185;80;25905;-59
2023/01/05 04:15:17;;;;;;;29.10;17.10;;;;;;;1.10;72.65;101060.57;1781075;80;25907;-60
2023/01/05 04:17:44;;;;;;;25.77;17.27;;;;;;;1.13;72.70;101051.63;1781283;80;28625;-60
2023/01/05 04:20:12;;;;;;;30.45;17.67;;;;;;;1.18;72.74;101047.84;1781338;79;25696;-60
2023/01/05 04:22:39;;;;;;;27.02;17.70;;;;;;;1.22;72.86;101035.30;1769112;80;25752;-59
2023/01/05 04:25:07;;;;;;;28.75;18.60;;;;;;;1.22;72.95;101040.13;1768903;80;25782;-59
2023/01/05 04:27:34;;;;;;;31.70;20.65;;;;;;;1.21;73.18;101041.05;1773908;80;26026;-59
2023/01/05 04:30:05;;;;;;;31.75;19.35;;;;;;;1.24;73.29;101041.41;1779296;80;27477;-59
2023/01/05 04:32:33;;;;;;;32.63;19.25;;;;;;;1.26;73.54;101048.80;1781594;80;25835;-59
2023/01/05 04:35:01;;;;;;;34.50;22.22;;;;;;;1.27;73.44;101043.05;1764522;80;25734;-60
2023/01/05 04:37:28;;;;;;;36.65;21.42;;;;;;;1.31;73.58;101031.36;1765971;80;25805;-59
2023/01/05 04:39:55;;;;;;;35.15;20.92;;;;;;;1.31;73.34;101030.03;1749064;82;26319;-59
2023/01/05 04:42:22;;;;;;;37.10;20.10;;;;;;;1.25;73.37;101032.05;1778403;78;29555;-59
2023/01/05 04:44:51;;;;;;;36.10;20.88;;;;;;;1.24;73.76;101029.48;1783657;80;25790;-59
2023/01/05 04:47:18;;;;;;;28.45;17.87;;;;;;;1.24;74.00;101021.05;1783697;79;25816;-59
2023/01/05 04:49:45;;;;;;;28.70;18.27;;;;;;;1.24;73.96;101021.53;1783203;80;25795;-60
2023/01/05 04:52:12;;;;;;;29.18;17.80;;;;;;;1.19;74.02;101008.48;1783020;80;25746;-59
2023/01/05 04:54:39;;;;;;;28.95;19.15;;;;;;;1.19;74.05;101013.78;1783617;80;28453;-59
2023/01/05 04:57:06;;;;;;;26.77;17.32;;;;;;;1.22;74.60;101021.58;1782966;80;25762;-59
2023/01/05 04:59:33;;;;;;;27.70;17.20;;;;;;;1.28;74.73;101028.88;1783175;80;25747;-60
2023/01/05 05:02:02;;;;;;;27.67;18.57;;;;;;;1.25;75.21;101016.15;1775462;79;25889;-60
2023/01/05 05:04:30;;;;;;;26.70;17.98;;;;;;;1.22;74.65;101011.45;1750058;81;25788;-59
2023/01/05 05:06:58;;;;;;;27.90;18.00;;;;;;;1.22;75.13;100997.72;1763115;80;28332;-60
2023/01/05 05:09:25;;;;;;;25.95;17.30;;;;;;;1.22;74.77;100988.45;1764019;81;25749;-60
2023/01/05 05:11:52;;;;;;;28.90;18.57;;;;;;;1.27;75.39;100976.31;1760977;80;25532;-60
2023/01/05 05:14:21;;;;;;;29.82;18.05;;;;;;;1.28;75.29;100954.66;1763757;81;25806;-59
2023/01/05 05:16:48;;;;;;;28.05;17.25;;;;;;;1.30;75.14;100960.75;1763838;80;27317;-60
2023/01/05 05:19:15;;;;;;;27.48;17.52;;;;;;;1.29;75.17;100957.70;1764141;81;27641;-59
2023/01/05 05:21:43;;;;;;;24.85;17.15;;;;;;;1.32;75.26;100947.81;1763763;81;25783;-59
2023/01/05 05:24:11;;;;;;;29.57;18.30;;;;;;;1.38;75.27;100933.42;1764343;81;25715;-60
2023/01/05 05:26:39;;;;;;;28.00;17.90;;;;;;;1.44;75.20;100930.91;1763775;81;25898;-60
2023/01/05 05:29:07;;;;;;;26.65;17.12;;;;;;;1.47;75.30;100922.82;1764021;81;25977;-60
2023/01/05 05:31:33;;;;;;;33.53;18.48;;;;;;;1.51;75.07;100916.45;1763976;81;27459;-59
2023/01/05 05:34:00;;;;;;;24.20;15.83;;;;;;;1.51;75.10;100921.76;1747445;81;25796;-59
2023/01/05 05:36:27;;;;;;;29.67;18.37;;;;;;;1.52;75.26;100908.89;1780116;80;25758;-59
2023/01/05 05:38:55;;;;;;;30.50;17.50;;;;;;;1.53;75.25;100894.67;1773614;80;26891;-59
2023/01/05 05:41:22;;;;;;;28.67;18.35;;;;;;;1.54;75.32;100891.97;1772436;80;25717;-59
2023/01/05 05:43:49;;;;;;;24.90;17.17;;;;;;;1.58;75.27;100889.15;1772797;80;28549;-59
2023/01/05 05:46:16;;;;;;;23.77;15.48;;;;;;;1.60;75.24;100888.61;1772109;80;25833;-60
2023/01/05 05:48:43;;;;;;;23.55;16.02;;;;;;;1.60;75.05;100888.61;1772505;80;25725;-59
2023/01/05 05:51:10;;;;;;;23.77;16.75;;;;;;;1.56;74.97;100884.81;1772510;80;25771;-59
2023/01/05 05:53:37;;;;;;;25.68;17.30;;;;;;;1.55;74.98;100878.23;1772473;80;27230;-59
2023/01/05 05:56:05;;;;;;;22.05;15.63;;;;;;;1.52;75.10;100872.62;1772419;80;27529;-59
2023/01/05 05:58:32;;;;;;;24.35;16.32;;;;;;;1.49;74.85;100875.89;1775547;78;25745;-59
2023/01/05 06:00:59;;;;;;;25.20;16.32;;;;;;;1.45;74.90;100865.91;1783029;78;25875;-59
2023/01/05 06:03:26;;;;;;;23.70;16.12;;;;;;;1.41;74.99;100865.66;1766945;78;25867;-59
2023/01/05 06:05:53;;;;;;;22.70;15.80;;;;;;;1.40;75.03;100873.20;1754438;81;25712;-59
2023/01/05 06:08:20;;;;;;;23.70;15.28;;;;;;;1.41;75.17;100878.91;1754240;81;28328;-59
2023/01/05 06:10:50;;;;;;;24.85;16.50;;;;;;;1.40;75.35;100870.11;1754394;81;25655;-60
2023/01/05 06:13:17;;;;;;;31.65;15.93;;;;;;;1.41;75.37;100863.00;1754011;81;25716;-59
2023/01/05 06:15:44;;;;;;;26.00;16.62;;;;;;;1.44;76.12;100861.53;1754359;81;25790;-60
2023/01/05 06:18:10;;;;;;;30.37;15.98;;;;;;;1.39;75.58;100865.73;1754245;81;25891;-59
2023/01/05 06:20:37;;;;;;;26.23;14.68;;;;;;;1.41;75.66;100859.02;1754195;81;27460;-59
2023/01/05 06:23:04;;;;;;;32.95;15.30;;;;;;;1.44;75.57;100853.58;1754078;81;25807;-59
2023/01/05 06:25:31;;;;;;;32.25;16.23;;;;;;;1.44;75.90;100854.03;1771460;80;25753;-60
2023/01/05 06:27:59;;;;;;;28.87;16.55;;;;;;;1.37;75.96;100862.77;1780981;80;25769;-60
2023/01/05 06:30:27;;;;;;;32.38;17.02;;;;;;;1.38;76.07;100847.27;1763980;80;26286;-59
2023/01/05 06:32:54;;;;;;;27.17;16.20;;;;;;;1.38;76.24;100851.24;1763105;80;28155;-59
2023/01/05 06:35:21;;;;;;;28.45;16.45;;;;;;;1.41;76.25;100843.12;1769243;80;25774;-59
2023/01/05 06:37:49;;;;;;;28.47;16.17;;;;;;;1.48;76.34;100836.57;1789652;79;26435;-60
2023/01/05 06:40:16;;;;;;;30.45;17.35;;;;;;;1.55;76.42;100830.05;1808134;78;25804;-59
2023/01/05 06:42:43;;;;;;;29.05;16.82;;;;;;;1.64;76.37;100822.57;1769645;80;25716;-59
2023/01/05 06:45:14;;;;;;;25.90;15.83;;;;;;;1.71;76.37;100817.34;1765582;81;27475;-59
2023/01/05 06:47:42;;;;;;;27.73;15.78;;;;;;;1.78;76.24;100816.56;1764320;81;25753;-60
2023/01/05 06:50:10;;;;;;;29.55;16.93;;;;;;;1.81;75.71;100821.69;1746749;81;25463;-60
2023/01/05 06:52:38;;;;;;;25.37;15.83;;;;;;;1.84;75.78;100825.53;1744124;82;25860;-59
2023/01/05 06:55:09;;;;;;;22.65;14.68;;;;;;;1.87;75.78;100823.57;1713176;83;25716;-59
2023/01/05 06:57:36;;;;;;;23.38;15.98;;;;;;;1.90;75.79;100821.22;1743742;82;28570;-59
2023/01/05 07:00:08;;;;;;;20.68;14.40;;;;;;;1.95;75.71;100817.00;1738569;82;25715;-60
2023/01/05 07:02:35;;;;;;;28.23;15.15;;;;;;;1.99;75.64;100804.83;1719684;83;25850;-59
2023/01/05 07:05:02;;;;;;;20.27;14.35;;;;;;;2.04;75.65;100796.63;1746128;82;26899;-59
2023/01/05 07:07:29;;;;;;;20.70;14.07;;;;;;;2.08;75.76;100799.52;1736394;80;25776;-59
2023/01/05 07:09:56;;;;;;;19.95;14.75;;;;;;;2.15;75.67;100805.38;1740052;82;27699;-59
2023/01/05 07:12:22;;;;;;;24.87;14.43;;;;;;;2.19;75.64;100810.44;1736626;80;27376;-60
2023/01/05 07:14:49;;;;;;;25.68;15.40;;;;;;;2.24;75.64;100800.87;1714672;83;25732;-60
2023/01/05 07:17:16;;;;;;;22.48;15.15;;;;;;;2.28;75.46;100790.49;1730093;82;26749;-60
2023/01/05 07:19:43;;;;;;;24.30;14.95;;;;;;;2.34;75.48;100785.33;1732936;82;25719;-59
2023/01/05 07:22:10;;;;;;;23.57;14.53;;;;;;;2.38;75.48;100786.02;1733046;81;27485;-59
2023/01/05 07:24:37;;;;;;;26.82;15.40;;;;;;;2.44;75.51;100789.66;1737752;82;25712;-60
2023/01/05 07:27:04;;;;;;;22.90;15.00;;;;;;;2.46;75.24;100799.73;1708331;82;25918;-59
2023/01/05 07:29:31;;;;;;;24.07;15.48;;;;;;;2.49;75.24;100807.54;1748707;81;25795;-59
2023/01/05 07:31:58;;;;;;;23.18;15.35;;;;;;;2.52;75.44;100806.02;1758868;81;25858;-60
2023/01/05 07:34:25;;;;;;;26.20;15.93;;;;;;;2.58;75.42;100812.80;1720081;81;27524;-60
2023/01/05 07:36:52;;;;;;;25.37;16.15;;;;;;;2.64;75.38;100808.02;1712971;81;26067;-60
2023/01/05 07:39:19;;;;;;;29.23;16.97;;;;;;;2.69;75.33;100802.45;1752495;80;25822;-59
2023/01/05 07:41:46;;;;;;;29.20;17.85;;;;;;;2.67;75.27;100792.38;1737310;81;25795;-60
2023/01/05 07:44:13;;;;;;;29.77;19.62;;;;;;;2.68;75.20;100790.60;1738764;80;25719;-62
2023/01/05 07:46:40;;;;;;;30.60;19.30;;;;;;;2.69;75.26;100790.98;1739105;80;27471;-59
2023/01/05 07:49:07;;;;;;;33.13;18.17;;;;;;;2.80;75.30;100800.07;1739603;82;25751;-59
2023/01/05 07:51:35;;;;;;;31.62;18.35;;;;;;;2.88;75.34;100792.14;1739728;82;25815;-59
2023/01/05 07:54:02;;;;;;;28.40;16.93;;;;;;;2.89;75.07;100800.02;1739545;82;26423;-60
2023/01/05 07:56:29;;;;;;;29.48;16.60;;;;;;;2.93;75.09;100798.03;1730098;82;25749;-60
2023/01/05 07:58:56;;;;;;;27.15;16.57;;;;;;;2.98;75.15;100794.67;1739100;82;27506;-60
2023/01/05 08:01:23;;;;;;;25.55;15.25;;;;;;;3.03;74.92;100791.27;1739610;82;25819;-60
2023/01/05 08:03:50;;;;;;;26.77;15.00;;;;;;;3.08;75.28;100794.98;1739691;82;25743;-60
2023/01/05 08:06:19;;;;;;;23.87;14.78;;;;;;;3.07;74.98;100788.83;1739647;82;25924;-61
2023/01/05 08:08:47;;;;;;;25.43;14.85;;;;;;;3.12;75.01;100783.25;1739526;82;25815;-60
2023/01/05 08:11:16;;;;;;;26.80;16.40;;;;;;;3.15;74.91;100791.03;1739586;82;27598;-60
2023/01/05 08:13:59;;;;;;;23.98;15.98;;;;;;;3.19;75.06;100796.57;1738550;82;25785;-61
2023/01/05 08:16:28;;;;;;;27.90;16.00;;;;;;;3.19;75.03;100788.59;1739554;82;25841;-60
2023/01/05 08:18:55;;;;;;;29.90;16.70;;;;;;;3.23;75.11;100782.63;1739878;82;26443;-61
2023/01/05 08:21:21;;;;;;;32.75;16.85;;;;;;;3.25;75.12;100784.73;1739696;82;25807;-60
2023/01/05 08:23:53;;;;;;;25.95;16.40;;;;;;;3.27;75.18;100782.36;1739592;82;27548;-60
2023/01/05 08:26:21;;;;;;;34.08;18.60;;;;;;;3.32;75.40;100771.45;1734232;82;26017;-60
2023/01/05 08:28:49;;;;;;;32.13;16.67;;;;;;;3.36;75.34;100737.56;1742632;81;25826;-60
2023/01/05 08:31:25;;;;;;;39.73;19.62;;;;;;;3.34;75.35;100715.06;1739630;82;25784;-60
2023/01/05 08:34:01;;;;;;;29.85;17.52;;;;;;;3.27;75.17;100749.61;1720728;82;25731;-60
2023/01/05 08:36:30;;;;;;;31.80;16.80;;;;;;;3.22;75.98;100772.48;1714056;83;27502;-61
2023/01/05 08:38:59;;;;;;;30.43;17.45;;;;;;;3.11;75.68;100757.61;1699662;83;25804;-60
2023/01/05 08:41:32;;;;;;;34.50;18.67;;;;;;;3.07;75.64;100751.63;1727774;82;25757;-60
2023/01/05 08:44:01;;;;;;;37.00;19.23;;;;;;;3.10;75.81;100739.46;1712490;83;25777;-60
2023/01/05 08:46:34;;;;;;;30.15;19.52;;;;;;;3.18;75.99;100744.83;1712604;83;25752;-60
2023/01/05 08:49:06;;;;;;;36.30;18.02;;;;;;;3.25;76.18;100739.05;1712165;83;27537;-59
2023/01/05 08:51:33;;;;;;;32.25;18.62;;;;;;;3.34;76.38;100743.44;1702856;84;25687;-60
2023/01/05 08:54:01;;;;;;;31.97;17.55;;;;;;;3.44;76.36;100736.18;1695997;84;25709;-60
2023/01/05 08:56:29;;;;;;;34.25;18.67;;;;;;;3.55;76.36;100714.70;1728078;82;26179;-60
2023/01/05 08:59:01;;;;;;;35.35;18.57;;;;;;;3.65;76.19;100702.56;1725673;82;25794;-60
2023/01/05 09:01:25;;;;;;;33.18;20.68;;;;;;;3.72;75.95;100689.27;1722142;83;28529;-60
2023/01/05 09:03:52;;;;;;;38.90;20.75;;;;;;;3.74;75.90;100683.88;1728811;81;25744;-60
2023/01/05 09:06:19;;;;;;;31.48;20.12;;;;;;;3.78;75.99;100685.86;1744114;82;25696;-60
2023/01/05 09:08:47;;;;;;;28.57;18.62;;;;;;;3.82;76.15;100678.05;1739645;82;25843;-61
2023/01/05 09:11:20;;;;;;;29.37;18.37;;;;;;;3.83;76.05;100666.46;1739950;82;26077;-61
2023/01/05 09:13:52;;;;;;;29.35;17.90;;;;;;;3.83;76.08;100673.98;1739846;80;28178;-61
2023/01/05 09:16:23;;;;;;;32.55;18.55;;;;;;;3.81;75.83;100663.06;1728010;80;25963;-60
2023/01/05 09:18:50;;;;;;;28.10;18.70;;;;;;;3.74;75.72;100661.25;1741999;82;25501;-60
2023/01/05 09:21:18;;;;;;;29.07;18.48;;;;;;;3.72;75.76;100650.69;1739830;82;25770;-60
2023/01/05 09:23:45;;;;;;;26.50;15.53;;;;;;;3.72;75.72;100642.70;1747840;80;25725;-60
2023/01/05 09:26:18;;;;;;;23.02;16.05;;;;;;;3.67;75.57;100639.48;1745788;82;27426;-60
2023/01/05 09:28:43;;;;;;;22.93;15.00;;;;;;;3.62;75.57;100645.58;1745997;81;26118;-60
2023/01/05 09:31:15;;;;;;;23.25;14.25;;;;;;;3.57;75.70;100630.36;1759000;81;25817;-59
2023/01/05 09:33:42;;;;;;;26.10;15.05;;;;;;;3.54;75.70;100634.55;1737036;80;26024;-61
2023/01/05 09:36:11;;;;;;;24.72;14.65;;;;;;;3.50;75.73;100637.01;1767533;80;25860;-60
2023/01/05 09:38:39;;;;;;;20.88;13.78;;;;;;;3.48;75.99;100609.64;1776391;79;27465;-60
2023/01/05 09:41:23;;;;;;;21.07;14.00;;;;;;;3.45;76.07;100610.20;1777630;80;25771;-60
2023/01/05 09:43:55;;;;;;;23.45;13.95;;;;;;;3.45;76.18;100596.91;1768132;79;25765;-60
2023/01/05 09:46:34;;;;;;;21.73;14.30;;;;;;;3.48;76.34;100587.03;1780088;80;26453;-60
2023/01/05 09:49:05;;;;;;;22.85;15.23;;;;;;;3.49;76.39;100580.31;1781410;80;27353;-60
2023/01/05 09:51:33;;;;;;;21.50;14.68;;;;;;;3.49;76.64;100576.33;1781229;80;27695;-60
2023/01/05 09:54:00;;;;;;;21.87;14.80;;;;;;;3.52;76.73;100558.83;1780498;80;26056;-60
2023/01/05 09:56:37;;;;;;;25.82;16.55;;;;;;;3.58;76.79;100554.47;1746948;80;25751;-60
2023/01/05 09:59:29;;;;;;;25.60;17.82;;;;;;;3.62;76.69;100551.59;1771878;80;26605;-60
2023/01/05 10:02:01;;;;;;;23.02;13.60;;;;;;;3.65;76.76;100561.56;1776713;80;25689;-61
2023/01/05 10:04:32;;;;;;;23.38;13.83;;;;;;;3.62;76.80;100563.11;1780143;80;27552;-59
2023/01/05 10:07:10;;;;;;;20.48;13.83;;;;;;;3.65;76.91;100565.55;1781486;80;26046;-60
2023/01/05 10:09:38;;;;;;;23.18;14.20;;;;;;;3.68;77.21;100566.70;1780807;78;25709;-60
2023/01/05 10:15:17;;;;;;;21.70;14.00;;;;;;;3.64;77.82;100549.21;1784456;80;25760;-59
2023/01/05 10:17:45;;;;;;;19.25;11.05;;;;;;;3.67;77.96;100560.16;1772171;80;27445;-60
2023/01/05 10:20:32;;;;;;;24.05;13.13;;;;;;;3.73;78.79;100547.30;1770610;81;25862;-59
2023/01/05 10:23:45;;;;;;;22.32;10.90;;;;;;;3.88;79.28;100544.63;1770088;80;36292;-60
2023/01/05 10:26:57;;;;;;;42.45;19.10;;;;;;;4.12;79.90;100528.88;1747815;80;25920;-61
2023/01/05 10:29:35;;;;;;;29.20;14.47;;;;;;;4.28;79.24;100523.87;1765653;78;25741;-60
2023/01/05 10:32:31;;;;;;;16.70;8.48;;;;;;;4.40;79.49;100503.05;1755845;80;28243;-60
2023/01/05 10:35:12;;;;;;;16.48;7.78;;;;;;;4.62;79.89;100493.13;1759967;81;26102;-59
2023/01/05 10:38:00;;;;;;;11.60;6.58;;;;;;;4.94;78.87;100477.22;1760644;80;25803;-59
2023/01/05 10:40:41;;;;;;;12.37;7.33;;;;;;;5.25;77.74;100473.23;1757460;80;25801;-59
2023/01/05 10:43:30;;;;;;;16.02;8.13;;;;;;;5.49;76.93;100484.47;1751632;80;25728;-59
2023/01/05 10:45:57;;;;;;;16.20;7.70;;;;;;;5.70;76.71;100490.06;1751816;81;27494;-59
2023/01/05 10:48:29;;;;;;;15.28;6.62;;;;;;;5.87;76.39;100486.14;1752265;80;25745;-60
2023/01/05 10:50:57;;;;;;;18.98;8.08;;;;;;;6.01;75.53;100496.34;1737984;81;25723;-60
2023/01/05 10:53:27;;;;;;;12.47;7.62;;;;;;;6.16;75.07;100502.36;1732771;82;25842;-59
2023/01/05 10:56:05;;;;;;;15.88;8.08;;;;;;;6.30;74.47;100501.33;1734070;81;25760;-60
2023/01/05 10:58:41;;;;;;;11.35;6.55;;;;;;;6.45;73.49;100493.48;1743734;80;27483;-60
2023/01/05 11:01:24;;;;;;;13.78;8.33;;;;;;;6.59;72.56;100493.77;1725111;80;25861;-59
2023/01/05 11:04:19;;;;;;;16.27;7.50;;;;;;;6.72;71.85;100497.19;1772601;80;25670;-59
2023/01/05 11:06:47;;;;;;;11.88;7.10;;;;;;;6.84;71.77;100499.89;1734772;82;25910;-60
2023/01/05 11:09:23;;;;;;;11.18;6.47;;;;;;;6.97;70.34;100481.94;1733116;82;26145;-59
2023/01/05 11:12:04;;;;;;;16.45;7.45;;;;;;;7.11;69.29;100468.83;1733012;81;28245;-60
2023/01/05 11:14:39;;;;;;;11.12;6.00;;;;;;;7.22;69.62;100466.63;1727309;81;26473;-59
2023/01/05 11:17:10;;;;;;;17.37;6.42;;;;;;;7.37;68.39;100464.55;1732953;81;25710;-60
2023/01/05 11:19:48;;;;;;;14.65;7.03;;;;;;;7.45;68.60;100463.45;1745785;81;25838;-59
2023/01/05 11:22:38;;;;;;;13.72;7.15;;;;;;;7.55;67.52;100456.85;1742632;80;25722;-60
2023/01/05 11:25:29;;;;;;;14.45;6.08;;;;;;;7.60;67.68;100453.33;1738167;80;27414;-60
2023/01/05 11:28:14;;;;;;;12.58;7.17;;;;;;;7.64;67.94;100436.53;1751829;80;25753;-60
2023/01/05 11:31:04;;;;;;;12.45;7.17;;;;;;;7.68;68.20;100440.64;1762679;80;25732;-60
2023/01/05 11:33:35;;;;;;;11.80;6.60;;;;;;;7.72;68.27;100436.75;1786226;79;25851;-59
2023/01/05 11:36:05;;;;;;;13.53;6.67;;;;;;;7.76;68.26;100430.65;1787483;79;25719;-59
2023/01/05 11:38:33;;;;;;;10.98;6.10;;;;;;;7.79;68.14;100429.91;1785235;79;27607;-59
2023/01/05 11:41:00;;;;;;;9.90;5.15;;;;;;;7.82;67.85;100427.45;1812960;79;25936;-59
2023/01/05 11:43:30;;;;;;;16.45;6.92;;;;;;;7.86;67.04;100422.69;1783457;79;25725;-59
2023/01/05 11:46:02;;;;;;;13.15;6.67;;;;;;;7.88;67.69;100421.61;1780975;80;25870;-61
2023/01/05 11:48:33;;;;;;;15.13;6.72;;;;;;;7.92;67.51;100414.17;1779994;80;25774;-60
2023/01/05 11:51:01;;;;;;;11.53;5.83;;;;;;;7.96;67.55;100412.45;1780894;80;27467;-60
2023/01/05 11:53:36;;;;;;;21.50;6.92;;;;;;;7.97;67.37;100415.96;1780569;80;25844;-60
2023/01/05 11:56:08;;;;;;;11.63;6.62;;;;;;;8.01;67.53;100410.72;1787313;79;25461;-60
2023/01/05 11:58:47;;;;;;;20.57;10.53;;;;;;;8.04;67.22;100401.07;1811508;78;28006;-60
2023/01/05 12:01:41;;;;;;;16.10;8.35;;;;;;;8.13;66.36;100411.52;1795260;79;25801;-60
2023/01/05 12:04:44;;;;;;;14.55;6.35;;;;;;;8.15;66.19;100400.19;1743902;82;27441;-59
2023/01/05 12:07:16;;;;;;;10.85;5.78;;;;;;;8.23;65.55;100400.38;1770687;80;25846;-60
2023/01/05 12:09:54;;;;;;;11.60;6.58;;;;;;;8.33;65.55;100398.27;1772838;80;25798;-60